createdAt,value
2023-09-30T00:01:28.299Z,0.30
2023-09-30T00:03:55.929Z,0.20
2023-09-30T00:06:23.181Z,0.20
2023-09-30T00:08:50.643Z,0.30
2023-09-30T00:11:20.471Z,0.20
2023-09-30T00:13:47.358Z,0.20
2023-09-30T00:16:14.741Z,0.20
2023-09-30T00:18:43.039Z,0.30
2023-09-30T00:21:10.062Z,0.20
2023-09-30T00:23:37.053Z,0.20
2023-09-30T00:26:04.034Z,0.20
2023-09-30T00:28:30.946Z,0.20
2023-09-30T00:30:58.003Z,0.20
2023-09-30T00:33:26.791Z,0.20
2023-09-30T00:35:55.051Z,0.23
2023-09-30T00:38:24.877Z,0.30
2023-09-30T00:40:52.387Z,0.20
2023-09-30T00:43:19.946Z,0.30
2023-09-30T00:45:47.695Z,0.20
2023-09-30T00:48:14.797Z,0.27
2023-09-30T00:50:42.401Z,0.30
2023-09-30T00:53:11.377Z,0.30
2023-09-30T00:55:38.394Z,0.30
2023-09-30T00:58:05.998Z,0.30
2023-09-30T01:00:33.553Z,0.30
2023-09-30T01:03:05.099Z,0.30
2023-09-30T01:05:33.088Z,0.30
2023-09-30T01:08:03.902Z,0.30
2023-09-30T01:10:32.493Z,0.30
2023-09-30T01:12:59.521Z,0.30
2023-09-30T01:15:26.472Z,0.23
2023-09-30T01:17:53.405Z,0.30
2023-09-30T01:20:23.756Z,0.30
2023-09-30T01:22:51.957Z,0.30
2023-09-30T01:25:19.194Z,0.20
2023-09-30T01:27:46.192Z,0.30
2023-09-30T01:30:15.174Z,0.20
2023-09-30T01:32:42.218Z,0.30
2023-09-30T01:35:11.075Z,0.30
2023-09-30T01:37:39.041Z,0.20
2023-09-30T01:40:13.086Z,0.30
2023-09-30T01:42:40.336Z,0.30
2023-09-30T01:45:08.758Z,0.30
2023-09-30T01:47:35.696Z,0.30
2023-09-30T01:50:02.916Z,0.30
2023-09-30T01:52:29.824Z,0.30
2023-09-30T01:54:56.740Z,0.30
2023-09-30T01:57:25.506Z,0.20
2023-09-30T01:59:52.892Z,0.30
2023-09-30T02:02:20.297Z,0.30
2023-09-30T02:04:47.161Z,0.30
2023-09-30T02:07:14.477Z,0.30
2023-09-30T02:09:41.397Z,0.30
2023-09-30T02:12:10.359Z,0.20
2023-09-30T02:14:39.772Z,0.30
2023-09-30T02:17:06.814Z,0.27
2023-09-30T02:19:34.896Z,0.30
2023-09-30T02:22:02.338Z,0.30
2023-09-30T02:24:29.213Z,0.30
2023-09-30T02:26:56.486Z,0.30
2023-09-30T02:29:23.411Z,0.27
2023-09-30T02:31:52.172Z,0.30
2023-09-30T02:34:19.136Z,0.30
2023-09-30T02:36:46.977Z,0.30
2023-09-30T02:39:13.956Z,0.30
2023-09-30T02:41:41.020Z,0.30
2023-09-30T02:44:07.917Z,0.30
2023-09-30T02:46:35.126Z,0.30
2023-09-30T02:49:03.758Z,0.20
2023-09-30T02:51:31.978Z,0.30
2023-09-30T02:53:59.102Z,0.30
2023-09-30T02:56:27.635Z,0.30
2023-09-30T02:58:55.083Z,0.30
2023-09-30T03:01:22.160Z,0.30
2023-09-30T03:03:49.325Z,0.30
2023-09-30T03:06:20.003Z,0.30
2023-09-30T03:08:47.847Z,0.30
2023-09-30T03:11:15.291Z,0.30
2023-09-30T03:13:43.428Z,0.30
2023-09-30T03:16:10.771Z,0.30
2023-09-30T03:18:37.795Z,0.30
2023-09-30T03:21:15.132Z,0.30
2023-09-30T03:23:43.562Z,0.30
2023-09-30T03:26:11.654Z,0.30
2023-09-30T03:28:41.872Z,0.30
2023-09-30T03:31:09.100Z,0.23
2023-09-30T03:33:36.403Z,0.30
2023-09-30T03:36:04.735Z,0.30
2023-09-30T03:38:32.863Z,0.30
2023-09-30T03:41:01.235Z,0.30
2023-09-30T03:43:28.153Z,0.30
2023-09-30T03:45:55.290Z,0.30
2023-09-30T03:48:22.497Z,0.30
2023-09-30T03:50:50.037Z,0.30
2023-09-30T03:53:17.211Z,0.30
2023-09-30T03:55:44.128Z,0.30
2023-09-30T03:58:13.787Z,0.30
2023-09-30T04:00:41.073Z,0.30
2023-09-30T04:03:08.477Z,0.30
2023-09-30T04:05:37.905Z,0.20
2023-09-30T04:08:06.539Z,0.30
2023-09-30T04:10:33.495Z,0.30
2023-09-30T04:13:00.688Z,0.30
2023-09-30T04:15:29.088Z,0.30
2023-09-30T04:17:56.188Z,0.30
2023-09-30T04:20:24.703Z,0.30
2023-09-30T04:22:52.380Z,0.30
2023-09-30T04:25:19.782Z,0.30
2023-09-30T04:27:50.037Z,0.30
2023-09-30T04:30:18.024Z,0.23
2023-09-30T04:32:46.591Z,0.30
2023-09-30T04:35:13.512Z,0.30
2023-09-30T04:37:40.839Z,0.30
2023-09-30T04:40:16.475Z,0.30
2023-09-30T04:42:45.907Z,0.30
2023-09-30T04:45:14.064Z,0.30
2023-09-30T04:47:41.532Z,0.30
2023-09-30T04:50:10.940Z,0.30
2023-09-30T04:52:38.121Z,0.30
2023-09-30T04:55:05.580Z,0.30
2023-09-30T04:57:35.771Z,0.30
2023-09-30T05:00:02.894Z,0.30
2023-09-30T05:02:29.910Z,0.30
2023-09-30T05:04:57.141Z,0.30
2023-09-30T05:07:25.519Z,0.30
2023-09-30T05:09:52.875Z,0.30
2023-09-30T05:12:19.859Z,0.30
2023-09-30T05:14:46.906Z,0.30
2023-09-30T05:17:14.345Z,0.30
2023-09-30T05:19:41.565Z,0.30
2023-09-30T05:22:08.399Z,0.30
2023-09-30T05:24:36.718Z,0.30
2023-09-30T05:27:03.777Z,0.30
2023-09-30T05:29:31.346Z,0.30
2023-09-30T05:31:58.224Z,0.30
2023-09-30T05:34:25.611Z,0.30
2023-09-30T05:36:52.940Z,0.30
2023-09-30T05:39:21.258Z,0.30
2023-09-30T05:41:49.524Z,0.30
2023-09-30T05:44:16.478Z,0.30
2023-09-30T05:46:44.431Z,0.30
2023-09-30T05:49:14.998Z,0.30
2023-09-30T05:51:42.204Z,0.30
2023-09-30T05:54:13.312Z,0.30
2023-09-30T05:56:43.577Z,0.30
2023-09-30T05:59:13.098Z,0.30
2023-09-30T06:01:41.123Z,0.30
2023-09-30T06:04:08.259Z,0.30
2023-09-30T06:06:35.476Z,0.30
2023-09-30T06:09:02.475Z,0.30
2023-09-30T06:11:29.785Z,0.30
2023-09-30T06:13:57.161Z,0.30
2023-09-30T06:16:27.402Z,0.30
2023-09-30T06:18:57.795Z,0.30
2023-09-30T06:21:30.449Z,0.30
2023-09-30T06:23:57.677Z,0.30
2023-09-30T06:26:29.890Z,0.30
2023-09-30T06:28:57.884Z,0.30
2023-09-30T06:31:28.130Z,0.30
2023-09-30T06:33:59.221Z,0.30
2023-09-30T06:36:26.530Z,0.30
2023-09-30T06:38:53.486Z,0.30
2023-09-30T06:41:20.869Z,0.30
2023-09-30T06:43:48.127Z,0.30
2023-09-30T06:46:15.311Z,0.30
2023-09-30T06:48:43.659Z,0.30
2023-09-30T06:51:16.505Z,0.30
2023-09-30T06:53:43.608Z,0.30
2023-09-30T06:56:10.558Z,0.30
2023-09-30T06:58:37.470Z,0.30
2023-09-30T07:01:04.738Z,0.30
2023-09-30T07:03:33.975Z,0.30
2023-09-30T07:06:03.228Z,0.30
2023-09-30T07:08:31.015Z,0.30
2023-09-30T07:10:58.021Z,0.30
2023-09-30T07:13:24.990Z,0.30
2023-09-30T07:15:52.073Z,0.30
2023-09-30T07:18:19.680Z,0.30
2023-09-30T07:20:46.950Z,0.30
2023-09-30T07:23:20.028Z,0.30
2023-09-30T07:25:48.310Z,0.30
2023-09-30T07:28:15.599Z,0.30
2023-09-30T07:30:43.813Z,0.30
2023-09-30T07:33:11.185Z,0.30
2023-09-30T07:35:40.030Z,0.27
2023-09-30T07:38:07.121Z,0.30
2023-09-30T07:40:35.458Z,0.20
2023-09-30T07:43:02.738Z,0.30
2023-09-30T07:45:29.874Z,0.30
2023-09-30T07:47:57.396Z,0.30
2023-09-30T07:50:24.344Z,0.30
2023-09-30T07:52:51.654Z,0.30
2023-09-30T07:55:18.685Z,0.30
2023-09-30T07:57:47.471Z,0.30
2023-09-30T08:00:18.397Z,0.30
2023-09-30T08:02:45.971Z,0.20
2023-09-30T08:05:13.394Z,0.20
2023-09-30T08:07:40.822Z,0.30
2023-09-30T08:10:13.731Z,0.30
2023-09-30T08:12:40.860Z,0.30
2023-09-30T08:15:13.040Z,0.30
2023-09-30T08:17:40.471Z,0.20
2023-09-30T08:20:10.188Z,0.20
2023-09-30T08:22:37.210Z,0.20
2023-09-30T08:25:07.195Z,0.20
2023-09-30T08:27:34.356Z,0.20
2023-09-30T08:30:06.346Z,0.23
2023-09-30T08:32:35.565Z,0.30
2023-09-30T08:35:03.608Z,0.20
2023-09-30T08:37:30.888Z,0.30
2023-09-30T08:39:58.271Z,0.30
2023-09-30T08:42:27.641Z,0.20
2023-09-30T08:44:55.924Z,0.20
2023-09-30T08:47:23.542Z,0.30
2023-09-30T08:49:58.018Z,0.20
2023-09-30T08:52:27.061Z,0.20
2023-09-30T08:54:55.080Z,0.30
2023-09-30T08:57:22.430Z,0.20
2023-09-30T08:59:51.029Z,0.30
2023-09-30T09:02:17.978Z,0.30
2023-09-30T09:04:46.903Z,0.23
2023-09-30T09:07:15.370Z,0.20
2023-09-30T09:09:42.588Z,0.30
2023-09-30T09:12:20.238Z,0.20
2023-09-30T09:14:48.649Z,0.23
2023-09-30T09:17:17.058Z,0.20
2023-09-30T09:19:44.408Z,0.20
2023-09-30T09:22:11.288Z,0.23
2023-09-30T09:24:48.169Z,0.20
2023-09-30T09:27:18.200Z,0.20
2023-09-30T09:29:47.229Z,0.20
2023-09-30T09:32:15.717Z,0.20
2023-09-30T09:34:44.684Z,0.20
2023-09-30T09:37:16.774Z,0.20
2023-09-30T09:39:57.301Z,0.30
2023-09-30T09:42:29.703Z,0.20
2023-09-30T09:44:58.324Z,0.20
2023-09-30T09:47:26.357Z,0.20
2023-09-30T09:49:54.274Z,0.20
2023-09-30T09:52:22.327Z,0.20
2023-09-30T09:54:51.874Z,0.20
2023-09-30T09:57:20.663Z,0.20
2023-09-30T09:59:48.560Z,0.30
2023-09-30T10:02:17.300Z,0.30
2023-09-30T10:04:45.542Z,0.20
2023-09-30T10:07:15.852Z,0.20
2023-09-30T10:09:47.640Z,0.20
2023-09-30T10:12:16.419Z,0.20
2023-09-30T10:14:45.169Z,0.20
2023-09-30T10:17:12.766Z,0.30
2023-09-30T10:20:07.664Z,0.20
2023-09-30T10:22:35.565Z,0.20
2023-09-30T10:25:22.806Z,0.20
2023-09-30T10:27:50.004Z,0.20
2023-09-30T10:30:18.610Z,0.20
2023-09-30T10:33:16.730Z,0.20
2023-09-30T10:35:48.560Z,0.20
2023-09-30T10:38:40.743Z,0.20
2023-09-30T10:41:11.615Z,0.20
2023-09-30T10:43:40.295Z,0.20
2023-09-30T10:46:33.288Z,0.20
2023-09-30T10:49:18.660Z,0.20
2023-09-30T10:51:47.722Z,0.20
2023-09-30T10:54:15.120Z,0.20
2023-09-30T10:56:42.371Z,0.20
2023-09-30T10:59:10.471Z,0.20
2023-09-30T11:01:39.392Z,0.20
2023-09-30T11:04:09.771Z,0.20
2023-09-30T11:06:42.181Z,0.20
2023-09-30T11:09:14.451Z,0.20
2023-09-30T11:11:50.094Z,0.17
2023-09-30T11:14:21.441Z,0.15
2023-09-30T11:16:51.453Z,0.20
2023-09-30T11:19:19.418Z,0.20
2023-09-30T11:21:46.911Z,0.20
2023-09-30T11:24:15.424Z,0.20
2023-09-30T11:26:42.724Z,0.20
2023-09-30T11:29:14.714Z,0.20
2023-09-30T11:31:42.588Z,0.20
2023-09-30T11:34:12.500Z,0.20
2023-09-30T11:36:43.359Z,0.20
2023-09-30T11:39:10.670Z,0.30
2023-09-30T11:41:42.834Z,0.20
2023-09-30T11:44:15.992Z,0.13
2023-09-30T11:46:51.035Z,0.10
2023-09-30T11:49:30.894Z,0.17
2023-09-30T11:52:02.533Z,0.20
2023-09-30T11:54:33.879Z,0.20
2023-09-30T11:57:02.864Z,0.20
2023-09-30T11:59:30.256Z,0.20
2023-09-30T12:02:12.683Z,0.10
2023-09-30T12:04:43.588Z,0.20
2023-09-30T12:07:11.235Z,0.20
2023-09-30T12:09:38.810Z,0.20
2023-09-30T12:12:11.135Z,0.20
2023-09-30T12:14:38.855Z,0.17
2023-09-30T12:17:06.278Z,0.20
2023-09-30T12:19:33.327Z,0.20
2023-09-30T12:22:01.635Z,0.20
2023-09-30T12:24:29.191Z,0.20
2023-09-30T12:26:56.197Z,0.10
2023-09-30T12:29:25.119Z,0.10
2023-09-30T12:31:55.365Z,0.10
2023-09-30T12:34:28.682Z,0.20
2023-09-30T12:36:58.064Z,0.10
2023-09-30T12:39:28.204Z,0.15
2023-09-30T12:41:55.700Z,0.20
2023-09-30T12:44:24.532Z,0.20
2023-09-30T12:46:51.877Z,0.20
2023-09-30T12:49:20.116Z,0.10
2023-09-30T12:51:47.399Z,0.20
2023-09-30T12:54:16.328Z,0.20
2023-09-30T12:56:44.760Z,0.20
2023-09-30T12:59:12.005Z,0.20
2023-09-30T13:01:38.960Z,0.20
2023-09-30T13:04:09.851Z,0.17
2023-09-30T13:06:37.436Z,0.10
2023-09-30T13:09:06.264Z,0.20
2023-09-30T13:11:35.734Z,0.20
2023-09-30T13:14:06.049Z,0.10
2023-09-30T13:16:33.274Z,0.10
2023-09-30T13:19:00.655Z,0.10
2023-09-30T13:21:28.260Z,0.10
2023-09-30T13:23:55.750Z,0.10
2023-09-30T13:26:22.703Z,0.20
2023-09-30T13:28:49.780Z,0.10
2023-09-30T13:31:18.486Z,0.20
2023-09-30T13:33:45.545Z,0.10
2023-09-30T13:36:12.697Z,0.10
2023-09-30T13:38:39.621Z,0.10
2023-09-30T13:41:06.942Z,0.10
2023-09-30T13:43:33.825Z,0.10
2023-09-30T13:46:04.866Z,0.10
2023-09-30T13:48:33.458Z,0.10
2023-09-30T13:51:06.567Z,0.20
2023-09-30T13:53:33.445Z,0.10
2023-09-30T13:56:00.695Z,0.10
2023-09-30T13:58:28.221Z,0.10
2023-09-30T14:00:55.548Z,0.15
2023-09-30T14:03:22.921Z,0.10
2023-09-30T14:05:51.380Z,0.10
2023-09-30T14:08:18.311Z,0.13
2023-09-30T14:10:45.570Z,0.10
2023-09-30T14:13:12.461Z,0.10
2023-09-30T14:15:39.728Z,0.10
2023-09-30T14:18:07.448Z,0.10
2023-09-30T14:20:35.130Z,0.10
2023-09-30T14:23:03.981Z,0.10
2023-09-30T14:25:31.035Z,0.17
2023-09-30T14:28:01.171Z,0.20
2023-09-30T14:30:28.430Z,0.10
2023-09-30T14:32:55.858Z,0.20
2023-09-30T14:35:22.900Z,0.10
2023-09-30T14:37:50.180Z,0.10
2023-09-30T14:40:18.618Z,0.20
2023-09-30T14:42:45.863Z,0.10
2023-09-30T14:45:12.796Z,0.10
2023-09-30T14:47:40.110Z,0.20
2023-09-30T14:50:08.672Z,0.10
2023-09-30T14:52:35.920Z,0.13
2023-09-30T14:55:03.048Z,0.15
2023-09-30T14:57:31.466Z,0.10
2023-09-30T15:00:00.249Z,0.10
2023-09-30T15:02:27.771Z,0.10
2023-09-30T15:04:54.730Z,0.10
2023-09-30T15:07:21.974Z,0.10
2023-09-30T15:09:48.907Z,0.10
2023-09-30T15:12:16.162Z,0.10
2023-09-30T15:14:45.957Z,0.20
2023-09-30T15:17:13.219Z,0.10
2023-09-30T15:19:40.066Z,0.10
2023-09-30T15:22:07.021Z,0.10
2023-09-30T15:24:34.158Z,0.20
2023-09-30T15:27:02.496Z,0.17
2023-09-30T15:29:29.449Z,0.10
2023-09-30T15:31:57.725Z,0.10
2023-09-30T15:34:24.899Z,0.10
2023-09-30T15:36:52.149Z,0.20
2023-09-30T15:39:19.007Z,0.10
2023-09-30T15:41:45.873Z,0.20
2023-09-30T15:44:12.839Z,0.20
2023-09-30T15:46:40.162Z,0.20
2023-09-30T15:49:08.805Z,0.20
2023-09-30T15:51:36.039Z,0.20
2023-09-30T15:54:03.298Z,0.20
2023-09-30T15:56:38.696Z,0.20
2023-09-30T15:59:12.859Z,0.20
2023-09-30T16:01:40.351Z,0.20
2023-09-30T16:04:09.233Z,0.20
2023-09-30T16:06:36.257Z,0.20
2023-09-30T16:09:03.302Z,0.10
2023-09-30T16:11:30.532Z,0.20
2023-09-30T16:13:58.102Z,0.10
2023-09-30T16:16:25.212Z,0.10
2023-09-30T16:18:52.217Z,0.15
2023-09-30T16:21:20.946Z,0.20
2023-09-30T16:23:47.870Z,0.20
2023-09-30T16:26:14.810Z,0.20
2023-09-30T16:28:41.956Z,0.20
2023-09-30T16:31:09.047Z,0.20
2023-09-30T16:33:37.558Z,0.20
2023-09-30T16:36:06.979Z,0.20
2023-09-30T16:38:36.287Z,0.20
2023-09-30T16:41:03.728Z,0.20
2023-09-30T16:43:30.993Z,0.20
2023-09-30T16:46:01.651Z,0.20
2023-09-30T16:48:29.002Z,0.20
2023-09-30T16:50:55.956Z,0.20
2023-09-30T16:53:24.295Z,0.20
2023-09-30T16:55:53.098Z,0.20
2023-09-30T16:58:20.163Z,0.20
2023-09-30T17:00:48.149Z,0.20
2023-09-30T17:03:15.461Z,0.20
2023-09-30T17:05:43.855Z,0.20
2023-09-30T17:08:11.039Z,0.20
2023-09-30T17:10:37.982Z,0.20
2023-09-30T17:13:06.584Z,0.20
2023-09-30T17:15:33.825Z,0.22
2023-09-30T17:18:01.336Z,0.20
2023-09-30T17:20:30.229Z,0.20
2023-09-30T17:22:57.170Z,0.20
2023-09-30T17:25:26.956Z,0.20
2023-09-30T17:27:53.962Z,0.20
2023-09-30T17:30:38.123Z,0.20
2023-09-30T17:33:08.142Z,0.20
2023-09-30T17:35:38.344Z,0.20
2023-09-30T17:38:05.254Z,0.20
2023-09-30T17:40:32.558Z,0.20
2023-09-30T17:42:59.902Z,0.20
2023-09-30T17:45:28.266Z,0.20
2023-09-30T17:47:55.275Z,0.20
2023-09-30T17:50:22.527Z,0.20
2023-09-30T17:52:50.224Z,0.20
2023-09-30T17:55:17.587Z,0.20
2023-09-30T17:57:44.584Z,0.20
2023-09-30T18:00:13.211Z,0.20
2023-09-30T18:02:41.648Z,0.20
2023-09-30T18:05:09.845Z,0.20
2023-09-30T18:07:36.880Z,0.20
2023-09-30T18:10:04.314Z,0.20
2023-09-30T18:12:31.258Z,0.20
2023-09-30T18:15:00.054Z,0.20
2023-09-30T18:17:26.906Z,0.20
2023-09-30T18:19:55.743Z,0.20
2023-09-30T18:22:22.730Z,0.20
2023-09-30T18:24:49.690Z,0.20
2023-09-30T18:27:16.636Z,0.20
2023-09-30T18:29:44.787Z,0.20
2023-09-30T18:32:11.977Z,0.20
2023-09-30T18:34:39.439Z,0.20
2023-09-30T18:37:08.101Z,0.20
2023-09-30T18:39:35.139Z,0.20
2023-09-30T18:42:02.189Z,0.20
2023-09-30T18:44:29.317Z,0.20
2023-09-30T18:46:56.319Z,0.20
2023-09-30T18:49:24.618Z,0.20
2023-09-30T18:51:51.927Z,0.20
2023-09-30T18:54:20.339Z,0.20
2023-09-30T18:56:47.901Z,0.20
2023-09-30T18:59:21.438Z,0.20
2023-09-30T19:01:49.058Z,0.20
2023-09-30T19:04:16.136Z,0.20
2023-09-30T19:06:43.962Z,0.20
2023-09-30T19:09:15.372Z,0.20
2023-09-30T19:11:45.648Z,0.20
2023-09-30T19:14:14.661Z,0.20
2023-09-30T19:16:44.687Z,0.20
2023-09-30T19:19:12.198Z,0.20
2023-09-30T19:21:39.781Z,0.30
2023-09-30T19:24:07.165Z,0.20
2023-09-30T19:26:34.279Z,0.20
2023-09-30T19:29:02.893Z,0.20
2023-09-30T19:31:30.102Z,0.20
2023-09-30T19:33:57.514Z,0.20
2023-09-30T19:36:25.722Z,0.20
2023-09-30T19:38:53.020Z,0.20
2023-09-30T19:41:21.804Z,0.20
2023-09-30T19:43:49.351Z,0.20
2023-09-30T19:46:18.017Z,0.20
2023-09-30T19:48:45.311Z,0.30
2023-09-30T19:51:15.713Z,0.20
2023-09-30T19:53:42.883Z,0.20
2023-09-30T19:56:10.351Z,0.20
2023-09-30T19:58:37.459Z,0.20
2023-09-30T20:01:09.186Z,0.20
2023-09-30T20:03:37.761Z,0.27
2023-09-30T20:06:19.285Z,0.20
2023-09-30T20:08:48.066Z,0.30
2023-09-30T20:11:23.805Z,0.30
2023-09-30T20:13:51.069Z,0.30
2023-09-30T20:16:18.712Z,0.20
2023-09-30T20:18:47.304Z,0.20
2023-09-30T20:21:14.384Z,0.20
2023-09-30T20:23:41.767Z,0.20
2023-09-30T20:26:13.748Z,0.20
2023-09-30T20:28:41.062Z,0.20
2023-09-30T20:31:08.067Z,0.20
2023-09-30T20:33:35.659Z,0.20
2023-09-30T20:36:06.972Z,0.20
2023-09-30T20:38:36.512Z,0.20
2023-09-30T20:41:07.659Z,0.20
2023-09-30T20:43:34.700Z,0.20
2023-09-30T20:46:03.421Z,0.20
2023-09-30T20:48:30.704Z,0.20
2023-09-30T20:50:57.565Z,0.20
2023-09-30T20:53:29.052Z,0.20
2023-09-30T20:55:56.116Z,0.30
2023-09-30T20:58:23.037Z,0.27
2023-09-30T21:00:50.086Z,0.20
2023-09-30T21:03:17.822Z,0.20
2023-09-30T21:05:45.024Z,0.20
2023-09-30T21:08:12.952Z,0.20
2023-09-30T21:10:41.184Z,0.20
2023-09-30T21:13:08.412Z,0.20
2023-09-30T21:15:36.061Z,0.20
2023-09-30T21:18:03.772Z,0.20
2023-09-30T21:20:30.799Z,0.20
2023-09-30T21:22:58.825Z,0.20
2023-09-30T21:25:25.749Z,0.20
2023-09-30T21:27:55.298Z,0.20
2023-09-30T21:30:22.243Z,0.20
2023-09-30T21:32:49.146Z,0.30
2023-09-30T21:35:17.326Z,0.20
2023-09-30T21:37:44.631Z,0.20
2023-09-30T21:40:13.232Z,0.20
2023-09-30T21:42:40.228Z,0.20
2023-09-30T21:45:09.702Z,0.20
2023-09-30T21:47:36.591Z,0.20
2023-09-30T21:50:03.576Z,0.20
2023-09-30T21:52:30.448Z,0.20
2023-09-30T21:54:58.138Z,0.20
2023-09-30T21:57:25.061Z,0.20
2023-09-30T21:59:53.300Z,0.23
2023-09-30T22:02:21.498Z,0.20
2023-09-30T22:04:48.483Z,0.20
2023-09-30T22:07:15.393Z,0.20
2023-09-30T22:09:42.702Z,0.20
2023-09-30T22:12:09.666Z,0.23
2023-09-30T22:14:36.566Z,0.20
2023-09-30T22:17:03.498Z,0.20
2023-09-30T22:19:31.910Z,0.20
2023-09-30T22:21:59.608Z,0.30
2023-09-30T22:24:28.374Z,0.30
2023-09-30T22:26:55.365Z,0.20
2023-09-30T22:29:22.614Z,0.20
2023-09-30T22:31:49.614Z,0.30
2023-09-30T22:34:17.126Z,0.20
2023-09-30T22:36:47.728Z,0.20
2023-09-30T22:39:16.065Z,0.30
2023-09-30T22:41:44.167Z,0.20
2023-09-30T22:44:11.663Z,0.30
2023-09-30T22:46:38.630Z,0.30
2023-09-30T22:49:07.838Z,0.30
2023-09-30T22:51:34.966Z,0.20
2023-09-30T22:54:05.063Z,0.20
2023-09-30T22:56:31.938Z,0.20
2023-09-30T22:58:59.116Z,0.30
2023-09-30T23:01:27.478Z,0.20
2023-09-30T23:03:54.917Z,0.20
2023-09-30T23:06:22.562Z,0.30
2023-09-30T23:08:50.622Z,0.20
2023-09-30T23:11:18.942Z,0.30
2023-09-30T23:13:46.666Z,0.30
2023-09-30T23:16:14.769Z,0.30
2023-09-30T23:18:41.930Z,0.30
2023-09-30T23:21:09.923Z,0.30
2023-09-30T23:23:37.420Z,0.20
2023-09-30T23:26:07.970Z,0.20
2023-09-30T23:28:36.472Z,0.20
2023-09-30T23:31:04.671Z,0.20
2023-09-30T23:33:34.635Z,0.30
2023-09-30T23:36:03.769Z,0.20
2023-09-30T23:38:31.787Z,0.20
2023-09-30T23:41:00.060Z,0.30
2023-09-30T23:43:27.472Z,0.20
2023-09-30T23:45:56.266Z,0.27
2023-09-30T23:48:23.232Z,0.30
2023-09-30T23:50:54.919Z,0.30
2023-09-30T23:53:24.407Z,0.20
2023-09-30T23:55:51.701Z,0.20
2023-09-30T23:58:18.635Z,0.30
